International Virtual Aviation Organisation

Russian Federation and Kazakhstan MCD

 

Карточка аэропорта USTR

Внимание!
Информация на этой странице в стадии наполнения.
Если вы не увидели какой-то информации, или заметили неточность - пожалуйста сообщите нам!
Спасибо!
Команда RU-STAFF
Название аэропортаРощино
Название аэропорта (англ.)Roshschino
Превышение378 ft. (115.2 m.)
Координаты57°10.098', 65°19.002'
Высота перехода700m
Эшелон переходаFL040
Коды ответчика5101-5137
Зона ОрВДТюмень РПИ (USTV)
Данные METARUSTR 060730Z 24008MPS 9999 DRSN NSC M07/M13 Q1003 R21/450257 R30/450355 TEMPO 27009G16MPS
Проноз погоды (TAF)USTR 060458Z 0606/0706 27007G12MPS 9999 DRSN SCT016CB TEMPO 0606/0609 25009G14MPS 3100 -SHSN BLSN BECMG 0609/0610 3100 -SHSN BLSN BKN011CB TEMPO 0610/0615 25009G16MPS 0600 +SHSN BLSN VV003 FM061800 26005G10MPS 9999 DRSN BKN016 BECMG 0622/0623 23005MPS NSW
NOTAMshow/hide NOTAM
AWOS   TABLE

Информация о ВПП

ВПП Длина ВПП (м.) Покрытие Курс ВПП Частота ILS
033003Асфальтобетон34108.3
213003Асфальтобетон214110.7
122704Асфальтобетон121 
302704Асфальтобетон301 

Диспетчерские позиции

Позывной Наименование органа УВД Частота
USTR_GNDТюмень-Руление119.000
USTR_TWRТюмень-Старт118.200
USTR_R_APPТюмень-Круг126.100



Спутниковое изображение